sensor_id;sensor_type;location;lat;lon;timestamp;P1;durP1;ratioP1;P2;durP2;ratioP2
62554;SDS011;48610;52.144;8.624;2023-04-08T00:00:13;10.13;;;5.13;;
62554;SDS011;48610;52.144;8.624;2023-04-08T00:03:14;12.10;;;5.93;;
62554;SDS011;48610;52.144;8.624;2023-04-08T00:06:15;10.77;;;5.90;;
62554;SDS011;48610;52.144;8.624;2023-04-08T00:09:15;10.00;;;5.10;;
62554;SDS011;48610;52.144;8.624;2023-04-08T00:12:16;8.15;;;4.85;;
62554;SDS011;48610;52.144;8.624;2023-04-08T00:15:17;12.73;;;6.20;;
62554;SDS011;48610;52.144;8.624;2023-04-08T00:18:17;8.93;;;5.47;;
62554;SDS011;48610;52.144;8.624;2023-04-08T00:21:18;8.32;;;5.30;;
62554;SDS011;48610;52.144;8.624;2023-04-08T00:24:20;11.93;;;5.78;;
62554;SDS011;48610;52.144;8.624;2023-04-08T00:27:20;13.10;;;6.22;;
62554;SDS011;48610;52.144;8.624;2023-04-08T00:30:21;10.30;;;6.03;;
62554;SDS011;48610;52.144;8.624;2023-04-08T00:33:21;9.60;;;5.95;;
62554;SDS011;48610;52.144;8.624;2023-04-08T00:36:24;10.50;;;5.82;;
62554;SDS011;48610;52.144;8.624;2023-04-08T00:39:26;18.60;;;5.75;;
62554;SDS011;48610;52.144;8.624;2023-04-08T00:42:27;11.10;;;5.90;;
62554;SDS011;48610;52.144;8.624;2023-04-08T00:45:29;8.88;;;5.93;;
62554;SDS011;48610;52.144;8.624;2023-04-08T00:48:30;8.82;;;6.05;;
62554;SDS011;48610;52.144;8.624;2023-04-08T00:51:31;10.32;;;6.03;;
62554;SDS011;48610;52.144;8.624;2023-04-08T00:54:31;12.82;;;6.03;;
62554;SDS011;48610;52.144;8.624;2023-04-08T00:57:32;9.13;;;5.60;;
62554;SDS011;48610;52.144;8.624;2023-04-08T01:00:33;9.95;;;5.93;;
62554;SDS011;48610;52.144;8.624;2023-04-08T01:03:41;9.20;;;5.30;;
62554;SDS011;48610;52.144;8.624;2023-04-08T01:06:48;9.35;;;5.70;;
62554;SDS011;48610;52.144;8.624;2023-04-08T01:09:55;9.27;;;6.07;;
62554;SDS011;48610;52.144;8.624;2023-04-08T01:13:02;9.00;;;5.55;;
62554;SDS011;48610;52.144;8.624;2023-04-08T01:16:11;11.68;;;6.60;;
62554;SDS011;48610;52.144;8.624;2023-04-08T01:19:16;9.75;;;6.18;;
62554;SDS011;48610;52.144;8.624;2023-04-08T01:25:53;9.02;;;5.85;;
62554;SDS011;48610;52.144;8.624;2023-04-08T01:28:55;12.07;;;6.80;;
62554;SDS011;48610;52.144;8.624;2023-04-08T01:31:58;15.80;;;6.40;;
62554;SDS011;48610;52.144;8.624;2023-04-08T01:35:01;9.57;;;6.30;;
62554;SDS011;48610;52.144;8.624;2023-04-08T01:38:02;14.10;;;7.05;;
62554;SDS011;48610;52.144;8.624;2023-04-08T01:41:07;10.10;;;6.80;;
62554;SDS011;48610;52.144;8.624;2023-04-08T01:44:10;12.05;;;7.15;;
62554;SDS011;48610;52.144;8.624;2023-04-08T01:47:13;12.30;;;7.00;;
62554;SDS011;48610;52.144;8.624;2023-04-08T01:50:14;11.73;;;7.35;;
62554;SDS011;48610;52.144;8.624;2023-04-08T01:53:16;13.13;;;7.47;;
62554;SDS011;48610;52.144;8.624;2023-04-08T01:56:16;14.30;;;8.20;;
62554;SDS011;48610;52.144;8.624;2023-04-08T01:59:21;14.67;;;7.50;;
62554;SDS011;48610;52.144;8.624;2023-04-08T02:02:23;14.23;;;7.53;;
62554;SDS011;48610;52.144;8.624;2023-04-08T02:05:26;12.73;;;7.80;;
62554;SDS011;48610;52.144;8.624;2023-04-08T02:08:26;12.30;;;7.18;;
62554;SDS011;48610;52.144;8.624;2023-04-08T02:11:27;14.82;;;7.10;;
62554;SDS011;48610;52.144;8.624;2023-04-08T02:14:28;11.60;;;6.80;;
62554;SDS011;48610;52.144;8.624;2023-04-08T02:20:49;13.63;;;7.88;;
62554;SDS011;48610;52.144;8.624;2023-04-08T02:27:02;13.68;;;8.20;;
62554;SDS011;48610;52.144;8.624;2023-04-08T02:30:07;14.52;;;7.88;;
62554;SDS011;48610;52.144;8.624;2023-04-08T02:33:10;16.13;;;8.48;;
62554;SDS011;48610;52.144;8.624;2023-04-08T02:36:11;14.82;;;8.18;;
62554;SDS011;48610;52.144;8.624;2023-04-08T02:39:13;19.38;;;8.25;;
62554;SDS011;48610;52.144;8.624;2023-04-08T02:42:13;13.77;;;8.30;;
62554;SDS011;48610;52.144;8.624;2023-04-08T02:45:14;13.95;;;8.38;;
62554;SDS011;48610;52.144;8.624;2023-04-08T02:48:15;21.63;;;10.38;;
62554;SDS011;48610;52.144;8.624;2023-04-08T02:51:15;17.00;;;9.05;;
62554;SDS011;48610;52.144;8.624;2023-04-08T02:54:16;19.23;;;9.02;;
62554;SDS011;48610;52.144;8.624;2023-04-08T02:57:16;18.60;;;9.10;;
62554;SDS011;48610;52.144;8.624;2023-04-08T03:00:17;14.90;;;8.88;;
62554;SDS011;48610;52.144;8.624;2023-04-08T03:03:18;18.13;;;10.23;;
62554;SDS011;48610;52.144;8.624;2023-04-08T03:06:18;16.90;;;9.05;;
62554;SDS011;48610;52.144;8.624;2023-04-08T03:09:19;21.15;;;10.35;;
62554;SDS011;48610;52.144;8.624;2023-04-08T03:12:20;18.23;;;10.48;;
62554;SDS011;48610;52.144;8.624;2023-04-08T03:15:21;19.20;;;10.32;;
62554;SDS011;48610;52.144;8.624;2023-04-08T03:18:21;21.15;;;11.32;;
62554;SDS011;48610;52.144;8.624;2023-04-08T03:21:22;21.45;;;11.10;;
62554;SDS011;48610;52.144;8.624;2023-04-08T03:24:23;20.77;;;11.68;;
62554;SDS011;48610;52.144;8.624;2023-04-08T03:27:24;20.33;;;10.80;;
62554;SDS011;48610;52.144;8.624;2023-04-08T03:30:25;20.00;;;10.18;;
62554;SDS011;48610;52.144;8.624;2023-04-08T03:33:25;16.85;;;9.90;;
62554;SDS011;48610;52.144;8.624;2023-04-08T03:36:26;17.80;;;9.18;;
62554;SDS011;48610;52.144;8.624;2023-04-08T03:39:27;17.90;;;9.35;;
62554;SDS011;48610;52.144;8.624;2023-04-08T03:42:27;18.98;;;9.15;;
62554;SDS011;48610;52.144;8.624;2023-04-08T03:45:28;16.77;;;8.85;;
62554;SDS011;48610;52.144;8.624;2023-04-08T03:48:28;17.63;;;8.45;;
62554;SDS011;48610;52.144;8.624;2023-04-08T03:51:29;12.52;;;7.65;;
62554;SDS011;48610;52.144;8.624;2023-04-08T03:54:29;14.65;;;7.65;;
62554;SDS011;48610;52.144;8.624;2023-04-08T03:57:30;15.18;;;8.48;;
62554;SDS011;48610;52.144;8.624;2023-04-08T04:00:30;11.75;;;7.38;;
62554;SDS011;48610;52.144;8.624;2023-04-08T04:03:31;13.23;;;7.25;;
62554;SDS011;48610;52.144;8.624;2023-04-08T04:06:32;15.40;;;7.53;;
62554;SDS011;48610;52.144;8.624;2023-04-08T04:09:32;13.38;;;7.25;;
62554;SDS011;48610;52.144;8.624;2023-04-08T04:12:33;13.73;;;7.97;;
62554;SDS011;48610;52.144;8.624;2023-04-08T04:15:36;11.20;;;6.55;;
62554;SDS011;48610;52.144;8.624;2023-04-08T04:18:38;15.40;;;7.75;;
62554;SDS011;48610;52.144;8.624;2023-04-08T04:21:39;13.30;;;7.70;;
62554;SDS011;48610;52.144;8.624;2023-04-08T04:24:39;13.20;;;7.78;;
62554;SDS011;48610;52.144;8.624;2023-04-08T04:27:40;13.77;;;7.57;;
62554;SDS011;48610;52.144;8.624;2023-04-08T04:30:40;15.35;;;8.52;;
62554;SDS011;48610;52.144;8.624;2023-04-08T04:33:41;24.60;;;9.63;;
62554;SDS011;48610;52.144;8.624;2023-04-08T04:36:42;16.38;;;8.63;;
62554;SDS011;48610;52.144;8.624;2023-04-08T04:39:43;24.98;;;9.45;;
62554;SDS011;48610;52.144;8.624;2023-04-08T04:42:43;17.33;;;9.00;;
62554;SDS011;48610;52.144;8.624;2023-04-08T04:45:44;21.20;;;9.40;;
62554;SDS011;48610;52.144;8.624;2023-04-08T04:48:44;16.70;;;8.85;;
62554;SDS011;48610;52.144;8.624;2023-04-08T04:51:45;18.10;;;9.80;;
62554;SDS011;48610;52.144;8.624;2023-04-08T04:54:46;17.48;;;8.93;;
62554;SDS011;48610;52.144;8.624;2023-04-08T04:57:47;17.05;;;9.27;;
62554;SDS011;48610;52.144;8.624;2023-04-08T05:00:48;15.20;;;8.27;;
62554;SDS011;48610;52.144;8.624;2023-04-08T05:03:48;17.63;;;9.00;;
62554;SDS011;48610;52.144;8.624;2023-04-08T05:06:49;16.08;;;8.93;;
62554;SDS011;48610;52.144;8.624;2023-04-08T05:09:50;14.30;;;8.60;;
62554;SDS011;48610;52.144;8.624;2023-04-08T05:12:50;15.45;;;8.68;;
62554;SDS011;48610;52.144;8.624;2023-04-08T05:15:51;15.48;;;8.55;;
62554;SDS011;48610;52.144;8.624;2023-04-08T05:18:51;17.15;;;8.15;;
62554;SDS011;48610;52.144;8.624;2023-04-08T05:21:52;16.25;;;8.95;;
62554;SDS011;48610;52.144;8.624;2023-04-08T05:24:52;16.25;;;8.25;;
62554;SDS011;48610;52.144;8.624;2023-04-08T05:27:53;14.48;;;8.45;;
62554;SDS011;48610;52.144;8.624;2023-04-08T05:30:53;15.60;;;8.52;;
62554;SDS011;48610;52.144;8.624;2023-04-08T05:33:54;18.58;;;8.50;;
62554;SDS011;48610;52.144;8.624;2023-04-08T05:36:55;17.10;;;9.27;;
62554;SDS011;48610;52.144;8.624;2023-04-08T05:39:55;18.45;;;9.35;;
62554;SDS011;48610;52.144;8.624;2023-04-08T05:42:56;16.17;;;9.30;;
62554;SDS011;48610;52.144;8.624;2023-04-08T05:45:56;16.48;;;9.38;;
62554;SDS011;48610;52.144;8.624;2023-04-08T05:48:57;17.13;;;8.73;;
62554;SDS011;48610;52.144;8.624;2023-04-08T05:51:58;20.08;;;10.30;;
62554;SDS011;48610;52.144;8.624;2023-04-08T05:54:58;21.50;;;10.18;;
62554;SDS011;48610;52.144;8.624;2023-04-08T05:57:59;23.80;;;9.85;;
62554;SDS011;48610;52.144;8.624;2023-04-08T06:01:00;18.42;;;9.98;;
62554;SDS011;48610;52.144;8.624;2023-04-08T06:04:00;16.70;;;9.52;;
62554;SDS011;48610;52.144;8.624;2023-04-08T06:07:01;17.20;;;9.32;;
62554;SDS011;48610;52.144;8.624;2023-04-08T06:10:03;17.88;;;9.80;;
62554;SDS011;48610;52.144;8.624;2023-04-08T06:13:04;21.58;;;10.07;;
62554;SDS011;48610;52.144;8.624;2023-04-08T06:19:13;20.30;;;10.05;;
62554;SDS011;48610;52.144;8.624;2023-04-08T06:22:13;17.67;;;10.50;;
62554;SDS011;48610;52.144;8.624;2023-04-08T06:25:14;25.52;;;11.15;;
62554;SDS011;48610;52.144;8.624;2023-04-08T06:28:15;19.83;;;10.20;;
62554;SDS011;48610;52.144;8.624;2023-04-08T06:31:16;19.83;;;9.77;;
62554;SDS011;48610;52.144;8.624;2023-04-08T06:34:16;19.80;;;10.45;;
62554;SDS011;48610;52.144;8.624;2023-04-08T06:37:17;24.30;;;10.75;;
62554;SDS011;48610;52.144;8.624;2023-04-08T06:40:18;19.77;;;10.48;;
62554;SDS011;48610;52.144;8.624;2023-04-08T06:43:18;21.42;;;10.48;;
62554;SDS011;48610;52.144;8.624;2023-04-08T06:46:19;23.50;;;11.32;;
62554;SDS011;48610;52.144;8.624;2023-04-08T06:49:20;20.40;;;10.82;;
62554;SDS011;48610;52.144;8.624;2023-04-08T06:52:21;23.60;;;11.00;;
62554;SDS011;48610;52.144;8.624;2023-04-08T06:55:21;22.65;;;11.23;;
62554;SDS011;48610;52.144;8.624;2023-04-08T06:58:22;22.77;;;10.43;;
62554;SDS011;48610;52.144;8.624;2023-04-08T07:01:22;27.60;;;11.77;;
62554;SDS011;48610;52.144;8.624;2023-04-08T07:04:23;22.83;;;11.60;;
62554;SDS011;48610;52.144;8.624;2023-04-08T07:07:24;20.45;;;12.15;;
62554;SDS011;48610;52.144;8.624;2023-04-08T07:10:25;20.95;;;11.52;;
62554;SDS011;48610;52.144;8.624;2023-04-08T07:13:25;21.85;;;11.65;;
62554;SDS011;48610;52.144;8.624;2023-04-08T07:16:26;27.20;;;13.13;;
62554;SDS011;48610;52.144;8.624;2023-04-08T07:19:27;24.98;;;12.82;;
62554;SDS011;48610;52.144;8.624;2023-04-08T07:22:27;26.15;;;12.85;;
62554;SDS011;48610;52.144;8.624;2023-04-08T07:25:28;24.52;;;12.98;;
62554;SDS011;48610;52.144;8.624;2023-04-08T07:28:28;26.42;;;12.40;;
62554;SDS011;48610;52.144;8.624;2023-04-08T07:31:29;26.02;;;12.88;;
62554;SDS011;48610;52.144;8.624;2023-04-08T07:34:30;26.33;;;12.63;;
62554;SDS011;48610;52.144;8.624;2023-04-08T07:37:30;30.33;;;13.13;;
62554;SDS011;48610;52.144;8.624;2023-04-08T07:40:31;26.33;;;12.05;;
62554;SDS011;48610;52.144;8.624;2023-04-08T07:43:32;32.80;;;13.98;;
62554;SDS011;48610;52.144;8.624;2023-04-08T07:46:39;25.15;;;12.93;;
62554;SDS011;48610;52.144;8.624;2023-04-08T07:49:39;29.92;;;14.30;;
62554;SDS011;48610;52.144;8.624;2023-04-08T07:52:40;27.70;;;13.45;;
62554;SDS011;48610;52.144;8.624;2023-04-08T07:55:41;32.50;;;14.95;;
62554;SDS011;48610;52.144;8.624;2023-04-08T07:58:41;34.05;;;14.55;;
62554;SDS011;48610;52.144;8.624;2023-04-08T08:01:42;36.45;;;14.15;;
62554;SDS011;48610;52.144;8.624;2023-04-08T08:04:43;34.53;;;15.10;;
62554;SDS011;48610;52.144;8.624;2023-04-08T08:07:43;34.65;;;16.48;;
62554;SDS011;48610;52.144;8.624;2023-04-08T08:10:44;35.58;;;14.25;;
62554;SDS011;48610;52.144;8.624;2023-04-08T08:13:45;29.98;;;13.95;;
62554;SDS011;48610;52.144;8.624;2023-04-08T08:16:45;35.17;;;15.93;;
62554;SDS011;48610;52.144;8.624;2023-04-08T08:19:47;38.05;;;15.70;;
62554;SDS011;48610;52.144;8.624;2023-04-08T08:22:47;30.88;;;14.70;;
62554;SDS011;48610;52.144;8.624;2023-04-08T08:25:48;33.83;;;15.43;;
62554;SDS011;48610;52.144;8.624;2023-04-08T08:28:48;40.95;;;14.77;;
62554;SDS011;48610;52.144;8.624;2023-04-08T08:31:49;30.77;;;15.00;;
62554;SDS011;48610;52.144;8.624;2023-04-08T08:34:50;33.58;;;14.50;;
62554;SDS011;48610;52.144;8.624;2023-04-08T08:37:50;34.10;;;15.90;;
62554;SDS011;48610;52.144;8.624;2023-04-08T08:40:54;36.10;;;14.98;;
62554;SDS011;48610;52.144;8.624;2023-04-08T08:43:56;42.72;;;15.93;;
62554;SDS011;48610;52.144;8.624;2023-04-08T08:46:59;34.00;;;15.75;;
62554;SDS011;48610;52.144;8.624;2023-04-08T08:50:00;33.15;;;16.05;;
62554;SDS011;48610;52.144;8.624;2023-04-08T08:53:01;35.00;;;15.88;;
62554;SDS011;48610;52.144;8.624;2023-04-08T08:56:03;31.35;;;15.25;;
62554;SDS011;48610;52.144;8.624;2023-04-08T08:59:04;34.83;;;15.65;;
62554;SDS011;48610;52.144;8.624;2023-04-08T09:02:07;37.45;;;16.60;;
62554;SDS011;48610;52.144;8.624;2023-04-08T09:05:26;34.42;;;15.50;;
62554;SDS011;48610;52.144;8.624;2023-04-08T09:08:29;34.47;;;14.40;;
62554;SDS011;48610;52.144;8.624;2023-04-08T09:11:35;30.65;;;14.88;;
62554;SDS011;48610;52.144;8.624;2023-04-08T09:14:39;30.05;;;14.48;;
62554;SDS011;48610;52.144;8.624;2023-04-08T09:17:40;35.00;;;15.85;;
62554;SDS011;48610;52.144;8.624;2023-04-08T09:20:50;36.00;;;15.95;;
62554;SDS011;48610;52.144;8.624;2023-04-08T09:23:52;38.13;;;15.82;;
62554;SDS011;48610;52.144;8.624;2023-04-08T09:26:52;30.02;;;13.98;;
62554;SDS011;48610;52.144;8.624;2023-04-08T09:29:54;35.95;;;15.63;;
62554;SDS011;48610;52.144;8.624;2023-04-08T09:33:12;34.72;;;14.60;;
62554;SDS011;48610;52.144;8.624;2023-04-08T09:36:14;32.60;;;15.57;;
62554;SDS011;48610;52.144;8.624;2023-04-08T09:39:15;42.97;;;14.65;;
62554;SDS011;48610;52.144;8.624;2023-04-08T09:42:16;31.23;;;13.88;;
62554;SDS011;48610;52.144;8.624;2023-04-08T09:45:20;33.00;;;15.00;;
62554;SDS011;48610;52.144;8.624;2023-04-08T09:48:22;32.72;;;14.95;;
62554;SDS011;48610;52.144;8.624;2023-04-08T09:51:28;31.95;;;14.93;;
62554;SDS011;48610;52.144;8.624;2023-04-08T09:54:37;35.25;;;14.93;;
62554;SDS011;48610;52.144;8.624;2023-04-08T09:58:14;31.10;;;14.02;;
62554;SDS011;48610;52.144;8.624;2023-04-08T10:01:19;36.10;;;15.35;;
62554;SDS011;48610;52.144;8.624;2023-04-08T10:04:25;41.63;;;14.77;;
62554;SDS011;48610;52.144;8.624;2023-04-08T10:07:28;32.58;;;14.57;;
62554;SDS011;48610;52.144;8.624;2023-04-08T10:10:29;31.35;;;14.80;;
62554;SDS011;48610;52.144;8.624;2023-04-08T10:13:30;31.92;;;16.02;;
62554;SDS011;48610;52.144;8.624;2023-04-08T10:16:33;39.03;;;16.17;;
62554;SDS011;48610;52.144;8.624;2023-04-08T10:19:37;32.28;;;15.75;;
62554;SDS011;48610;52.144;8.624;2023-04-08T10:25:43;37.22;;;16.00;;
62554;SDS011;48610;52.144;8.624;2023-04-08T10:28:47;33.92;;;14.68;;
62554;SDS011;48610;52.144;8.624;2023-04-08T10:31:48;38.45;;;16.63;;
62554;SDS011;48610;52.144;8.624;2023-04-08T10:34:50;34.30;;;16.25;;
62554;SDS011;48610;52.144;8.624;2023-04-08T10:37:52;34.72;;;16.80;;
62554;SDS011;48610;52.144;8.624;2023-04-08T10:40:53;41.60;;;17.45;;
62554;SDS011;48610;52.144;8.624;2023-04-08T10:43:54;40.75;;;16.30;;
62554;SDS011;48610;52.144;8.624;2023-04-08T10:46:54;34.28;;;14.82;;
62554;SDS011;48610;52.144;8.624;2023-04-08T10:49:55;33.70;;;16.00;;
62554;SDS011;48610;52.144;8.624;2023-04-08T10:52:56;36.55;;;16.65;;
62554;SDS011;48610;52.144;8.624;2023-04-08T10:56:04;31.77;;;15.55;;
62554;SDS011;48610;52.144;8.624;2023-04-08T10:59:06;33.47;;;15.68;;
62554;SDS011;48610;52.144;8.624;2023-04-08T11:02:11;30.50;;;14.48;;
62554;SDS011;48610;52.144;8.624;2023-04-08T11:05:13;32.33;;;15.18;;
62554;SDS011;48610;52.144;8.624;2023-04-08T11:08:13;35.63;;;15.63;;
62554;SDS011;48610;52.144;8.624;2023-04-08T11:11:14;27.92;;;15.10;;
62554;SDS011;48610;52.144;8.624;2023-04-08T11:14:15;29.10;;;14.52;;
62554;SDS011;48610;52.144;8.624;2023-04-08T11:17:18;31.52;;;14.57;;
62554;SDS011;48610;52.144;8.624;2023-04-08T11:20:19;38.92;;;15.52;;
62554;SDS011;48610;52.144;8.624;2023-04-08T11:23:21;31.83;;;15.13;;
62554;SDS011;48610;52.144;8.624;2023-04-08T11:26:23;32.92;;;15.20;;
62554;SDS011;48610;52.144;8.624;2023-04-08T11:29:24;31.27;;;15.77;;
62554;SDS011;48610;52.144;8.624;2023-04-08T11:32:25;37.65;;;16.25;;
62554;SDS011;48610;52.144;8.624;2023-04-08T11:35:28;33.47;;;14.93;;
62554;SDS011;48610;52.144;8.624;2023-04-08T11:38:31;38.00;;;16.98;;
62554;SDS011;48610;52.144;8.624;2023-04-08T11:41:35;36.50;;;16.50;;
62554;SDS011;48610;52.144;8.624;2023-04-08T11:47:38;35.78;;;15.80;;
62554;SDS011;48610;52.144;8.624;2023-04-08T11:50:39;31.45;;;16.15;;
62554;SDS011;48610;52.144;8.624;2023-04-08T11:53:40;36.28;;;15.82;;
62554;SDS011;48610;52.144;8.624;2023-04-08T11:56:46;32.58;;;15.20;;
62554;SDS011;48610;52.144;8.624;2023-04-08T11:59:47;34.33;;;16.55;;
62554;SDS011;48610;52.144;8.624;2023-04-08T12:02:47;36.22;;;17.00;;
62554;SDS011;48610;52.144;8.624;2023-04-08T12:05:48;33.92;;;15.98;;
62554;SDS011;48610;52.144;8.624;2023-04-08T12:08:49;36.85;;;16.00;;
62554;SDS011;48610;52.144;8.624;2023-04-08T12:11:50;32.97;;;15.45;;
62554;SDS011;48610;52.144;8.624;2023-04-08T12:14:50;30.85;;;16.17;;
62554;SDS011;48610;52.144;8.624;2023-04-08T12:17:51;35.97;;;16.35;;
62554;SDS011;48610;52.144;8.624;2023-04-08T12:20:52;38.45;;;16.90;;
62554;SDS011;48610;52.144;8.624;2023-04-08T12:23:53;36.22;;;16.90;;
62554;SDS011;48610;52.144;8.624;2023-04-08T12:26:54;32.35;;;16.73;;
62554;SDS011;48610;52.144;8.624;2023-04-08T12:29:55;35.88;;;16.55;;
62554;SDS011;48610;52.144;8.624;2023-04-08T12:32:56;37.90;;;16.60;;
62554;SDS011;48610;52.144;8.624;2023-04-08T12:35:57;34.90;;;15.98;;
62554;SDS011;48610;52.144;8.624;2023-04-08T12:38:58;37.40;;;17.17;;
62554;SDS011;48610;52.144;8.624;2023-04-08T12:41:58;32.58;;;15.63;;
62554;SDS011;48610;52.144;8.624;2023-04-08T12:44:59;30.02;;;16.83;;
62554;SDS011;48610;52.144;8.624;2023-04-08T12:48:00;33.03;;;16.50;;
62554;SDS011;48610;52.144;8.624;2023-04-08T12:51:00;36.22;;;17.73;;
62554;SDS011;48610;52.144;8.624;2023-04-08T12:54:01;31.63;;;16.48;;
62554;SDS011;48610;52.144;8.624;2023-04-08T12:57:03;33.58;;;14.98;;
62554;SDS011;48610;52.144;8.624;2023-04-08T13:00:03;30.45;;;16.58;;
62554;SDS011;48610;52.144;8.624;2023-04-08T13:03:04;37.28;;;15.88;;
62554;SDS011;48610;52.144;8.624;2023-04-08T13:06:05;34.55;;;16.00;;
62554;SDS011;48610;52.144;8.624;2023-04-08T13:09:06;33.67;;;15.35;;
62554;SDS011;48610;52.144;8.624;2023-04-08T13:12:06;32.70;;;16.48;;
62554;SDS011;48610;52.144;8.624;2023-04-08T13:15:07;32.45;;;15.70;;
62554;SDS011;48610;52.144;8.624;2023-04-08T13:18:08;42.38;;;17.73;;
62554;SDS011;48610;52.144;8.624;2023-04-08T13:21:09;29.88;;;15.20;;
62554;SDS011;48610;52.144;8.624;2023-04-08T13:24:10;32.40;;;15.88;;
62554;SDS011;48610;52.144;8.624;2023-04-08T13:27:10;32.97;;;16.42;;
62554;SDS011;48610;52.144;8.624;2023-04-08T13:30:11;33.88;;;15.88;;
62554;SDS011;48610;52.144;8.624;2023-04-08T13:33:12;34.55;;;15.90;;
62554;SDS011;48610;52.144;8.624;2023-04-08T13:36:13;29.95;;;15.60;;
62554;SDS011;48610;52.144;8.624;2023-04-08T13:39:13;37.67;;;16.35;;
62554;SDS011;48610;52.144;8.624;2023-04-08T13:42:14;30.27;;;15.23;;
62554;SDS011;48610;52.144;8.624;2023-04-08T13:45:14;37.15;;;15.93;;
62554;SDS011;48610;52.144;8.624;2023-04-08T13:48:15;31.50;;;16.73;;
62554;SDS011;48610;52.144;8.624;2023-04-08T13:51:15;33.10;;;16.02;;
62554;SDS011;48610;52.144;8.624;2023-04-08T13:54:16;35.13;;;16.67;;
62554;SDS011;48610;52.144;8.624;2023-04-08T13:57:17;30.52;;;14.80;;
62554;SDS011;48610;52.144;8.624;2023-04-08T14:00:17;30.67;;;15.32;;
62554;SDS011;48610;52.144;8.624;2023-04-08T14:03:18;30.90;;;15.32;;
62554;SDS011;48610;52.144;8.624;2023-04-08T14:06:18;31.80;;;16.10;;
62554;SDS011;48610;52.144;8.624;2023-04-08T14:09:19;33.05;;;16.00;;
62554;SDS011;48610;52.144;8.624;2023-04-08T14:12:20;31.10;;;15.82;;
62554;SDS011;48610;52.144;8.624;2023-04-08T14:15:20;36.92;;;16.50;;
62554;SDS011;48610;52.144;8.624;2023-04-08T14:18:21;32.35;;;15.25;;
62554;SDS011;48610;52.144;8.624;2023-04-08T14:21:22;34.00;;;16.17;;
62554;SDS011;48610;52.144;8.624;2023-04-08T14:24:23;36.38;;;16.33;;
62554;SDS011;48610;52.144;8.624;2023-04-08T14:27:24;38.38;;;16.13;;
62554;SDS011;48610;52.144;8.624;2023-04-08T14:30:25;46.95;;;18.40;;
62554;SDS011;48610;52.144;8.624;2023-04-08T14:33:25;39.88;;;17.15;;
62554;SDS011;48610;52.144;8.624;2023-04-08T14:36:26;35.45;;;16.13;;
62554;SDS011;48610;52.144;8.624;2023-04-08T14:39:27;35.63;;;16.50;;
62554;SDS011;48610;52.144;8.624;2023-04-08T14:42:28;38.25;;;17.13;;
62554;SDS011;48610;52.144;8.624;2023-04-08T14:45:29;34.67;;;16.85;;
62554;SDS011;48610;52.144;8.624;2023-04-08T14:48:30;33.33;;;16.52;;
62554;SDS011;48610;52.144;8.624;2023-04-08T14:51:30;36.00;;;16.83;;
62554;SDS011;48610;52.144;8.624;2023-04-08T14:54:32;33.90;;;16.23;;
62554;SDS011;48610;52.144;8.624;2023-04-08T14:57:32;36.08;;;16.85;;
62554;SDS011;48610;52.144;8.624;2023-04-08T15:00:33;32.05;;;16.40;;
62554;SDS011;48610;52.144;8.624;2023-04-08T15:03:33;35.63;;;17.38;;
62554;SDS011;48610;52.144;8.624;2023-04-08T15:06:34;36.05;;;17.08;;
62554;SDS011;48610;52.144;8.624;2023-04-08T15:09:34;32.45;;;17.02;;
62554;SDS011;48610;52.144;8.624;2023-04-08T15:12:35;35.17;;;16.80;;
62554;SDS011;48610;52.144;8.624;2023-04-08T15:15:35;33.95;;;17.50;;
62554;SDS011;48610;52.144;8.624;2023-04-08T15:18:36;31.27;;;15.55;;
62554;SDS011;48610;52.144;8.624;2023-04-08T15:21:37;35.53;;;16.85;;
62554;SDS011;48610;52.144;8.624;2023-04-08T15:24:37;32.30;;;16.73;;
62554;SDS011;48610;52.144;8.624;2023-04-08T15:27:38;32.92;;;16.65;;
62554;SDS011;48610;52.144;8.624;2023-04-08T15:30:38;33.17;;;16.60;;
62554;SDS011;48610;52.144;8.624;2023-04-08T15:33:39;37.88;;;16.90;;
62554;SDS011;48610;52.144;8.624;2023-04-08T15:36:42;34.28;;;18.10;;
62554;SDS011;48610;52.144;8.624;2023-04-08T15:39:44;34.55;;;16.02;;
62554;SDS011;48610;52.144;8.624;2023-04-08T15:42:45;40.88;;;16.73;;
62554;SDS011;48610;52.144;8.624;2023-04-08T15:45:45;35.72;;;17.35;;
62554;SDS011;48610;52.144;8.624;2023-04-08T15:48:47;44.10;;;16.65;;
62554;SDS011;48610;52.144;8.624;2023-04-08T15:51:48;28.90;;;16.27;;
62554;SDS011;48610;52.144;8.624;2023-04-08T15:54:50;30.50;;;15.48;;
62554;SDS011;48610;52.144;8.624;2023-04-08T15:57:50;34.00;;;16.10;;
62554;SDS011;48610;52.144;8.624;2023-04-08T16:00:53;41.08;;;17.13;;
62554;SDS011;48610;52.144;8.624;2023-04-08T16:03:54;34.17;;;16.90;;
62554;SDS011;48610;52.144;8.624;2023-04-08T16:06:55;32.25;;;16.17;;
62554;SDS011;48610;52.144;8.624;2023-04-08T16:09:56;28.27;;;15.70;;
62554;SDS011;48610;52.144;8.624;2023-04-08T16:12:58;29.50;;;16.38;;
62554;SDS011;48610;52.144;8.624;2023-04-08T16:16:01;31.17;;;15.88;;
62554;SDS011;48610;52.144;8.624;2023-04-08T16:19:03;36.50;;;15.77;;
62554;SDS011;48610;52.144;8.624;2023-04-08T16:22:03;34.45;;;17.58;;
62554;SDS011;48610;52.144;8.624;2023-04-08T16:25:04;32.90;;;17.00;;
62554;SDS011;48610;52.144;8.624;2023-04-08T16:28:05;34.65;;;17.80;;
62554;SDS011;48610;52.144;8.624;2023-04-08T16:31:06;38.40;;;17.70;;
62554;SDS011;48610;52.144;8.624;2023-04-08T16:34:06;35.58;;;17.92;;
62554;SDS011;48610;52.144;8.624;2023-04-08T16:37:07;31.40;;;16.50;;
62554;SDS011;48610;52.144;8.624;2023-04-08T16:40:07;30.35;;;16.35;;
62554;SDS011;48610;52.144;8.624;2023-04-08T16:43:09;33.50;;;18.20;;
62554;SDS011;48610;52.144;8.624;2023-04-08T16:46:10;31.30;;;16.92;;
62554;SDS011;48610;52.144;8.624;2023-04-08T16:49:11;37.33;;;17.40;;
62554;SDS011;48610;52.144;8.624;2023-04-08T16:52:12;33.40;;;16.85;;
62554;SDS011;48610;52.144;8.624;2023-04-08T16:55:12;33.20;;;17.70;;
62554;SDS011;48610;52.144;8.624;2023-04-08T16:58:13;36.08;;;17.63;;
62554;SDS011;48610;52.144;8.624;2023-04-08T17:01:14;34.30;;;17.05;;
62554;SDS011;48610;52.144;8.624;2023-04-08T17:04:14;35.45;;;17.65;;
62554;SDS011;48610;52.144;8.624;2023-04-08T17:07:15;32.00;;;17.40;;
62554;SDS011;48610;52.144;8.624;2023-04-08T17:10:16;34.45;;;17.60;;
62554;SDS011;48610;52.144;8.624;2023-04-08T17:13:17;31.52;;;15.85;;
62554;SDS011;48610;52.144;8.624;2023-04-08T17:16:18;33.25;;;16.33;;
62554;SDS011;48610;52.144;8.624;2023-04-08T17:19:18;27.98;;;15.52;;
62554;SDS011;48610;52.144;8.624;2023-04-08T17:22:19;31.23;;;16.92;;
62554;SDS011;48610;52.144;8.624;2023-04-08T17:25:20;35.33;;;17.40;;
62554;SDS011;48610;52.144;8.624;2023-04-08T17:28:21;32.35;;;16.98;;
62554;SDS011;48610;52.144;8.624;2023-04-08T17:31:21;32.33;;;16.27;;
62554;SDS011;48610;52.144;8.624;2023-04-08T17:34:22;31.70;;;14.80;;
62554;SDS011;48610;52.144;8.624;2023-04-08T17:37:23;27.45;;;15.85;;
62554;SDS011;48610;52.144;8.624;2023-04-08T17:40:24;37.40;;;15.02;;
62554;SDS011;48610;52.144;8.624;2023-04-08T17:43:25;51.95;;;24.13;;
62554;SDS011;48610;52.144;8.624;2023-04-08T17:46:26;61.72;;;26.60;;
62554;SDS011;48610;52.144;8.624;2023-04-08T17:49:27;51.83;;;23.00;;
62554;SDS011;48610;52.144;8.624;2023-04-08T17:52:30;41.55;;;20.55;;
62554;SDS011;48610;52.144;8.624;2023-04-08T17:55:31;42.13;;;21.80;;
62554;SDS011;48610;52.144;8.624;2023-04-08T17:58:32;40.83;;;20.75;;
62554;SDS011;48610;52.144;8.624;2023-04-08T18:01:32;42.97;;;21.55;;
62554;SDS011;48610;52.144;8.624;2023-04-08T18:04:33;40.05;;;20.73;;